Time;durP1;ratioP1;P1;durP2;ratioP2;P2;SDS_P1;SDS_P2;PMS_P1;PMS_P2;Temp;Humidity;BMP_temperature;BMP_pressure;BME280_temperature;BME280_humidity;BME280_pressure;Samples;Min_cycle;Max_cycle;Signal;HPM_P1;HPM_P2
2023/03/13 00:02:14;;;;;;;8.73;2.53;;;16.90;90.80;;;;;;10526097;28;20097;-26
2023/03/13 00:07:16;;;;;;;10.40;2.67;;;16.50;91.60;;;;;;10519495;28;20040;-30
2023/03/13 00:12:18;;;;;;;11.53;2.63;;;16.30;92.80;;;;;;10524843;28;20045;-27
2023/03/13 00:17:22;;;;;;;7.95;2.50;;;16.40;92.00;;;;;;10521521;28;20389;-26
2023/03/13 00:22:24;;;;;;;10.48;2.40;;;17.10;89.30;;;;;;10520401;28;20040;-27
2023/03/13 00:27:25;;;;;;;13.27;2.30;;;15.80;96.40;;;;;;10526398;28;20143;-26
2023/03/13 00:32:29;;;;;;;5.40;1.77;;;15.70;95.70;;;;;;10523835;28;20135;-25
2023/03/13 00:37:32;;;;;;;6.78;2.10;;;15.60;96.70;;;;;;10521531;28;20105;-27
2023/03/13 00:42:33;;;;;;;;;;;14.60;99.90;;;;;;10520662;28;20542;-25
2023/03/13 00:47:37;;;;;;;13.40;2.10;;;16.10;95.50;;;;;;10528192;28;19926;-25
2023/03/13 00:52:39;;;;;;;6.63;2.53;;;15.80;95.90;;;;;;10523111;28;20500;-27
2023/03/13 00:57:40;;;;;;;15.93;3.20;;;15.50;99.40;;;;;;10518748;28;20143;-28
2023/03/13 01:02:44;;;;;;;8.53;2.80;;;15.20;99.90;;;;;;10525933;28;20474;-25
2023/03/13 01:07:46;;;;;;;7.82;2.83;;;15.30;99.10;;;;;;10526655;28;20226;-25
2023/03/13 01:12:48;;;;;;;13.40;2.47;;;14.40;99.90;;;;;;10524466;28;20065;-25
2023/03/13 01:17:51;;;;;;;9.93;2.45;;;14.20;99.90;;;;;;10511643;28;20070;-27
2023/03/13 01:22:53;;;;;;;10.10;2.72;;;14.50;99.90;;;;;;10522729;28;20048;-30
2023/03/13 01:27:55;;;;;;;5.07;2.17;;;14.20;99.90;;;;;;10518230;28;20072;-26
2023/03/13 01:32:58;;;;;;;7.83;1.97;;;15.10;99.90;;;;;;10524660;28;20139;-27
2023/03/13 01:38:00;;;;;;;8.80;2.33;;;14.70;99.90;;;;;;10521457;28;20044;-26
2023/03/13 01:43:16;;;;;;;11.07;3.03;;;14.20;99.90;;;;;;10518530;28;20068;-24
2023/03/13 01:48:21;;;;;;;12.93;3.50;;;12.70;99.90;;;;;;10510192;28;20081;-25
2023/03/13 01:53:25;;;;;;;12.90;2.90;;;12.50;99.90;;;;;;10500354;28;20087;-24
2023/03/13 01:58:29;;;;;;;9.23;2.42;;;12.90;99.90;;;;;;10512140;28;20415;-26
2023/03/13 02:03:34;;;;;;;7.93;2.75;;;12.90;99.90;;;;;;10501901;28;20048;-28
2023/03/13 02:08:40;;;;;;;5.68;3.13;;;12.90;99.90;;;;;;10503006;28;20044;-23
2023/03/13 02:13:43;;;;;;;15.13;3.30;;;12.60;99.90;;;;;;10504517;28;20059;-24
2023/03/13 02:18:47;;;;;;;7.45;3.03;;;12.40;99.90;;;;;;10499252;28;20053;-26
2023/03/13 02:23:58;;;;;;;7.35;3.15;;;12.30;99.90;;;;;;10514376;28;20040;-25
2023/03/13 02:29:01;;;;;;;13.63;3.45;;;12.30;99.90;;;;;;10518676;28;20040;-24
2023/03/13 02:34:04;;;;;;;13.57;3.85;;;12.20;99.90;;;;;;10506359;28;20559;-23
2023/03/13 02:39:07;;;;;;;7.95;2.28;;;12.50;99.90;;;;;;10510664;28;20299;-24
2023/03/13 02:44:11;;;;;;;10.98;2.97;;;12.90;99.90;;;;;;10517227;28;20067;-28
2023/03/13 02:49:24;;;;;;;7.60;2.47;;;12.50;99.90;;;;;;10518952;28;20044;-25
2023/03/13 02:54:27;;;;;;;;;;;12.60;99.90;;;;;;10526423;28;20127;-25
2023/03/13 02:59:31;;;;;;;6.20;2.63;;;12.60;99.90;;;;;;10535429;28;20002;-26
2023/03/13 03:04:33;;;;;;;12.10;2.67;;;12.50;99.90;;;;;;10505787;28;20362;-26
2023/03/13 03:09:34;;;;;;;12.87;2.80;;;12.60;99.90;;;;;;10506809;28;20072;-29
2023/03/13 03:14:38;;;;;;;7.78;2.53;;;12.70;99.90;;;;;;10503601;28;20857;-26
2023/03/13 03:19:40;;;;;;;8.50;2.88;;;12.70;99.90;;;;;;10499265;28;20563;-28
2023/03/13 03:24:42;;;;;;;14.60;3.15;;;12.60;99.90;;;;;;10505086;28;20241;-26
2023/03/13 03:29:45;;;;;;;14.60;3.15;;;12.40;99.90;;;;;;10506473;28;20469;-24
2023/03/13 03:34:47;;;;;;;7.25;2.53;;;12.60;99.90;;;;;;10518570;28;20083;-25
2023/03/13 03:39:49;;;;;;;5.03;2.08;;;12.70;99.90;;;;;;10508142;28;20068;-26
2023/03/13 03:44:52;;;;;;;6.45;2.40;;;12.90;99.90;;;;;;10516089;28;20135;-25
2023/03/13 03:49:54;;;;;;;6.72;2.88;;;12.50;99.90;;;;;;10520416;28;20075;-26
2023/03/13 03:54:56;;;;;;;9.85;2.67;;;12.50;99.90;;;;;;10520266;28;20167;-26
2023/03/13 03:59:59;;;;;;;8.23;3.47;;;12.70;99.90;;;;;;10509413;28;20037;-26
2023/03/13 04:05:01;;;;;;;7.05;2.30;;;12.70;99.90;;;;;;10515020;28;20131;-26
2023/03/13 04:10:03;;;;;;;10.82;3.30;;;13.00;99.90;;;;;;10513876;28;20075;-23
2023/03/13 04:15:07;;;;;;;10.77;2.95;;;12.60;99.90;;;;;;10524903;28;20106;-25
2023/03/13 04:20:12;;;;;;;8.73;2.13;;;12.90;99.90;;;;;;10533481;28;20127;-25
2023/03/13 04:25:14;;;;;;;10.43;3.15;;;12.70;99.90;;;;;;10524770;28;20115;-25
2023/03/13 04:30:17;;;;;;;9.02;4.53;;;12.90;99.90;;;;;;10522603;28;20210;-27
2023/03/13 04:35:19;;;;;;;11.43;2.67;;;12.70;99.90;;;;;;10524065;28;20362;-27
2023/03/13 04:40:21;;;;;;;13.93;2.95;;;12.90;99.90;;;;;;10510551;28;20045;-27
2023/03/13 04:45:24;;;;;;;14.47;3.07;;;12.70;99.90;;;;;;10517756;28;20484;-23
2023/03/13 04:50:26;;;;;;;19.05;3.90;;;13.00;99.90;;;;;;10512934;28;20142;-26
2023/03/13 04:55:28;;;;;;;12.68;4.03;;;12.80;99.90;;;;;;10525274;28;20048;-30
2023/03/13 05:00:31;;;;;;;17.05;3.47;;;12.80;99.90;;;;;;10517214;28;20430;-27
2023/03/13 05:05:34;;;;;;;14.93;2.80;;;13.00;99.90;;;;;;10511258;28;20047;-26
2023/03/13 05:10:36;;;;;;;10.85;2.95;;;13.10;99.90;;;;;;10511915;28;20186;-29
2023/03/13 05:15:39;;;;;;;10.32;3.75;;;12.70;99.90;;;;;;10501997;28;20083;-25
2023/03/13 05:20:41;;;;;;;11.15;2.85;;;13.20;99.90;;;;;;10514405;28;20044;-25
2023/03/13 05:25:43;;;;;;;9.73;2.35;;;12.90;99.90;;;;;;10509163;28;20534;-32
2023/03/13 05:30:46;;;;;;;9.13;2.37;;;13.30;99.90;;;;;;10516403;28;20123;-25
2023/03/13 05:35:48;;;;;;;17.35;3.33;;;13.60;99.90;;;;;;10506220;28;20084;-26
2023/03/13 05:40:50;;;;;;;13.00;3.03;;;12.90;99.90;;;;;;10505210;28;20038;-25
2023/03/13 05:45:53;;;;;;;9.35;2.83;;;13.20;99.90;;;;;;10507775;28;20473;-26
2023/03/13 05:50:55;;;;;;;12.88;2.80;;;13.10;99.90;;;;;;10502906;28;20063;-26
2023/03/13 05:55:56;;;;;;;14.18;3.15;;;13.30;99.90;;;;;;10515094;28;20174;-25
2023/03/13 06:01:00;;;;;;;16.08;3.58;;;13.20;99.90;;;;;;10505392;28;20072;-26
2023/03/13 06:06:02;;;;;;;7.72;2.80;;;12.70;99.90;;;;;;10503820;28;20145;-27
2023/03/13 06:11:04;;;;;;;11.93;3.27;;;12.60;99.90;;;;;;10513364;28;20098;-25
2023/03/13 06:16:08;;;;;;;10.50;2.87;;;12.40;99.90;;;;;;10521851;28;20574;-25
2023/03/13 06:21:10;;;;;;;13.40;2.97;;;12.80;99.90;;;;;;10500121;28;20036;-24
2023/03/13 06:26:12;;;;;;;10.60;3.60;;;13.30;99.90;;;;;;10504311;28;20427;-26
2023/03/13 06:31:15;;;;;;;13.50;3.28;;;12.60;99.90;;;;;;10521027;28;20123;-25
2023/03/13 06:36:16;;;;;;;13.85;4.53;;;12.70;99.90;;;;;;10514981;28;20480;-26
2023/03/13 06:41:19;;;;;;;10.40;2.97;;;13.10;99.90;;;;;;10505052;28;20098;-26
2023/03/13 06:46:24;;;;;;;16.17;2.63;;;13.40;99.90;;;;;;10526464;28;20473;-25
2023/03/13 06:51:26;;;;;;;9.82;2.47;;;13.00;99.90;;;;;;10499744;28;20642;-25
2023/03/13 06:56:28;;;;;;;16.20;3.03;;;13.20;99.90;;;;;;10526683;28;20560;-25
2023/03/13 07:01:41;;;;;;;;;;;;;;;;;;;;;
2023/03/13 07:15:18;;;;;;;8.05;2.60;;;13.10;99.90;;;;;;10543281;27;20120;-25
2023/03/13 07:20:20;;;;;;;8.32;2.22;;;13.00;99.90;;;;;;10522708;28;20090;-25
2023/03/13 07:25:22;;;;;;;16.92;3.15;;;13.10;99.90;;;;;;10524149;28;20048;-26
2023/03/13 07:30:25;;;;;;;8.07;2.20;;;12.80;99.90;;;;;;10527061;28;20067;-25
2023/03/13 07:35:27;;;;;;;8.43;2.38;;;13.30;99.90;;;;;;10530858;28;20075;-26
2023/03/13 07:40:29;;;;;;;9.55;2.38;;;13.30;99.90;;;;;;10523670;28;20043;-25
2023/03/13 07:45:32;;;;;;;12.32;2.35;;;13.10;99.90;;;;;;10533591;28;20071;-27
2023/03/13 07:50:34;;;;;;;7.63;2.45;;;13.30;99.90;;;;;;10525773;28;21550;-25
2023/03/13 07:55:35;;;;;;;6.45;2.30;;;12.90;99.90;;;;;;10514284;28;20044;-26
2023/03/13 08:00:39;;;;;;;6.50;1.95;;;13.20;99.90;;;;;;10528169;28;20456;-27
2023/03/13 08:05:41;;;;;;;6.85;1.67;;;13.00;99.90;;;;;;10524207;28;20032;-24
2023/03/13 08:10:43;;;;;;;7.43;2.07;;;13.20;99.90;;;;;;10538642;28;20056;-25
2023/03/13 08:15:47;;;;;;;12.15;2.30;;;13.30;99.90;;;;;;10521602;28;20044;-28
2023/03/13 08:20:49;;;;;;;9.77;2.28;;;12.90;99.90;;;;;;10517387;28;20072;-26
2023/03/13 08:25:51;;;;;;;13.63;3.53;;;13.10;99.90;;;;;;10495438;28;20468;-28
2023/03/13 08:30:54;;;;;;;7.22;1.63;;;13.10;99.90;;;;;;10479937;28;20594;-24
2023/03/13 08:35:56;;;;;;;11.20;2.10;;;13.20;99.90;;;;;;10482582;28;20384;-27
2023/03/13 08:40:58;;;;;;;12.38;2.10;;;13.20;99.90;;;;;;10481161;28;20049;-25
2023/03/13 08:46:01;;;;;;;20.50;2.47;;;13.40;99.90;;;;;;10499422;28;20124;-25
2023/03/13 08:51:05;;;;;;;8.18;2.20;;;13.30;99.90;;;;;;10486229;28;20457;-25
2023/03/13 08:56:08;;;;;;;11.35;2.00;;;13.80;99.90;;;;;;10485021;28;20060;-25
2023/03/13 09:01:14;;;;;;;13.20;2.47;;;13.80;99.90;;;;;;10490615;28;20071;-25
2023/03/13 09:06:17;;;;;;;9.98;2.17;;;13.70;99.90;;;;;;10492489;28;20043;-25
2023/03/13 09:11:20;;;;;;;19.38;3.20;;;13.90;99.90;;;;;;10500360;28;20096;-25
2023/03/13 09:16:26;;;;;;;11.23;3.30;;;13.70;99.90;;;;;;10493308;28;20513;-25
2023/03/13 09:21:29;;;;;;;14.68;2.90;;;13.90;99.90;;;;;;10494410;28;20045;-25
2023/03/13 09:26:31;;;;;;;16.63;1.92;;;13.40;99.90;;;;;;10491625;28;20123;-25
2023/03/13 09:31:34;;;;;;;7.45;1.40;;;14.10;99.90;;;;;;10491935;28;20052;-26
2023/03/13 09:36:36;;;;;;;6.45;1.75;;;14.30;99.90;;;;;;10490170;28;20094;-28
2023/03/13 09:41:43;;;;;;;9.27;1.93;;;14.30;99.90;;;;;;10489110;28;20108;-28
2023/03/13 09:46:56;;;;;;;6.25;1.50;;;14.70;99.90;;;;;;10487909;28;20056;-27
2023/03/13 09:52:06;;;;;;;5.68;1.85;;;14.40;99.90;;;;;;10496057;28;20408;-26
2023/03/13 09:57:16;;;;;;;10.60;1.92;;;14.40;99.90;;;;;;10493569;28;20072;-27
2023/03/13 10:02:27;;;;;;;13.15;2.00;;;14.70;99.90;;;;;;10492728;28;20517;-24
2023/03/13 10:07:29;;;;;;;7.03;1.92;;;14.40;99.90;;;;;;10482660;28;20041;-26
2023/03/13 10:12:38;;;;;;;10.00;2.10;;;14.60;99.90;;;;;;10499081;28;20120;-25
2023/03/13 10:17:42;;;;;;;12.00;1.70;;;14.50;99.90;;;;;;10487069;28;20041;-25
2023/03/13 10:22:48;;;;;;;10.95;2.15;;;14.50;99.90;;;;;;10488986;28;20079;-26
2023/03/13 10:27:51;;;;;;;16.10;2.63;;;14.70;99.90;;;;;;10493302;28;20040;-25
2023/03/13 10:32:59;;;;;;;19.52;3.17;;;14.30;99.90;;;;;;10489312;28;20060;-26
2023/03/13 10:38:05;;;;;;;9.50;2.05;;;14.20;99.90;;;;;;10494921;28;20058;-28
2023/03/13 10:43:14;;;;;;;16.85;2.78;;;14.60;99.90;;;;;;10486914;28;20075;-28
2023/03/13 10:48:21;;;;;;;14.23;2.72;;;14.10;99.90;;;;;;10489899;28;20040;-28
2023/03/13 10:53:31;;;;;;;19.65;2.58;;;14.40;99.90;;;;;;10489007;28;20148;-26
2023/03/13 10:58:36;;;;;;;15.95;2.63;;;14.40;99.90;;;;;;10488024;28;20156;-29
2023/03/13 11:03:40;;;;;;;17.55;2.97;;;14.60;99.90;;;;;;10493189;28;20151;-29
2023/03/13 11:08:42;;;;;;;31.13;4.70;;;14.40;98.80;;;;;;10495744;28;20128;-28
2023/03/13 11:13:45;;;;;;;29.42;3.72;;;14.50;99.90;;;;;;10488176;28;20095;-27
2023/03/13 11:19:09;;;;;;;25.67;3.47;;;14.30;99.90;;;;;;10486058;28;20560;-25
2023/03/13 11:24:19;;;;;;;30.17;4.05;;;14.50;99.90;;;;;;10485598;28;20056;-26
2023/03/13 11:29:26;;;;;;;19.40;2.88;;;14.60;99.90;;;;;;10484190;28;20606;-24
2023/03/13 11:34:36;;;;;;;28.70;4.45;;;14.70;99.90;;;;;;10489301;28;20163;-26
2023/03/13 11:39:55;;;;;;;23.08;3.85;;;14.30;99.60;;;;;;10485519;28;20378;-28
2023/03/13 11:45:03;;;;;;;28.48;5.20;;;14.40;99.90;;;;;;10480690;28;20368;-28
2023/03/13 11:50:18;;;;;;;22.00;3.50;;;13.90;99.90;;;;;;10485226;28;20477;-26
2023/03/13 11:55:29;;;;;;;25.13;4.07;;;14.00;99.90;;;;;;10495095;28;20140;-26
2023/03/13 12:00:35;;;;;;;29.35;5.55;;;14.20;99.90;;;;;;10490682;28;20131;-29
2023/03/13 12:05:45;;;;;;;35.80;6.07;;;13.90;99.90;;;;;;10494714;28;20113;-24
2023/03/13 12:10:52;;;;;;;32.35;4.82;;;13.90;99.90;;;;;;10505048;28;20044;-24
2023/03/13 12:15:59;;;;;;;25.98;5.03;;;14.30;99.90;;;;;;10502835;28;20143;-25
2023/03/13 12:21:07;;;;;;;37.67;5.65;;;13.90;99.90;;;;;;10502381;28;20127;-24
2023/03/13 12:26:14;;;;;;;25.25;4.45;;;14.00;99.90;;;;;;10496327;28;20795;-25
2023/03/13 12:31:22;;;;;;;24.08;4.03;;;14.10;99.90;;;;;;10480299;28;20080;-24
2023/03/13 12:36:32;;;;;;;21.45;3.83;;;14.60;99.90;;;;;;10492986;28;20131;-25
2023/03/13 12:41:40;;;;;;;27.42;5.97;;;14.50;99.90;;;;;;10488175;28;20040;-24
2023/03/13 12:46:46;;;;;;;31.38;4.35;;;14.60;99.90;;;;;;10462999;28;20040;-22
2023/03/13 12:52:03;;;;;;;28.70;5.07;;;14.50;99.90;;;;;;10489243;28;20139;-25
2023/03/13 12:57:16;;;;;;;30.35;4.78;;;14.60;99.90;;;;;;10486515;28;20503;-27
2023/03/13 13:02:22;;;;;;;29.25;5.38;;;14.60;97.20;;;;;;10490737;28;20060;-26
2023/03/13 13:07:28;;;;;;;34.25;4.88;;;14.70;96.00;;;;;;10491898;28;20502;-26
2023/03/13 13:12:31;;;;;;;25.92;4.22;;;15.00;95.10;;;;;;10500230;28;20087;-26
2023/03/13 13:17:49;;;;;;;27.70;5.60;;;15.10;99.90;;;;;;10498300;28;20128;-25
2023/03/13 13:22:53;;;;;;;44.38;5.63;;;14.70;95.90;;;;;;10492876;28;20457;-26
2023/03/13 13:27:55;;;;;;;25.92;4.53;;;15.00;96.10;;;;;;10491960;28;20550;-26
2023/03/13 13:33:37;;;;;;;33.20;5.95;;;15.10;96.30;;;;;;10495597;28;20503;-29
2023/03/13 13:38:41;;;;;;;27.95;4.35;;;15.30;99.90;;;;;;10488324;28;20081;-26
2023/03/13 13:43:44;;;;;;;24.38;4.07;;;15.20;99.90;;;;;;10495479;28;20052;-27
2023/03/13 13:48:46;;;;;;;25.25;4.30;;;15.50;93.00;;;;;;10489479;28;20037;-26
2023/03/13 13:53:53;;;;;;;30.90;4.37;;;15.50;91.70;;;;;;10490501;28;20159;-26
2023/03/13 13:58:57;;;;;;;31.38;5.80;;;15.40;99.50;;;;;;10481808;28;20044;-26
2023/03/13 14:04:11;;;;;;;28.58;4.22;;;15.50;91.50;;;;;;10490722;28;20084;-24
2023/03/13 14:09:24;;;;;;;16.70;3.65;;;15.60;90.30;;;;;;10486637;28;20068;-26
2023/03/13 14:14:25;;;;;;;;;;;16.10;95.80;;;;;;10483842;28;20106;-30
2023/03/13 14:19:29;;;;;;;20.55;3.72;;;15.80;93.60;;;;;;10491278;28;20018;-28
2023/03/13 14:24:33;;;;;;;45.88;5.03;;;15.90;87.80;;;;;;10486771;28;20050;-27
2023/03/13 14:29:35;;;;;;;27.20;4.47;;;15.90;99.60;;;;;;10494713;28;20059;-27
2023/03/13 14:34:36;;;;;;;28.17;5.53;;;15.70;86.40;;;;;;10489743;28;20133;-26
2023/03/13 14:39:44;;;;;;;36.77;5.50;;;15.70;99.90;;;;;;10491351;28;20071;-26
2023/03/13 14:44:48;;;;;;;40.00;5.80;;;15.30;91.00;;;;;;10487260;28;20051;-26
2023/03/13 14:49:57;;;;;;;31.13;5.95;;;14.90;99.90;;;;;;10486908;28;20052;-27
2023/03/13 14:55:03;;;;;;;38.55;4.80;;;14.40;95.70;;;;;;10493990;28;20047;-28
2023/03/13 15:00:31;;;;;;;32.45;4.70;;;15.50;92.40;;;;;;10492972;28;20128;-28
2023/03/13 15:05:34;;;;;;;27.63;4.07;;;15.70;99.60;;;;;;10484778;28;20044;-29
2023/03/13 15:10:41;;;;;;;40.15;5.47;;;16.10;95.20;;;;;;10491673;28;20048;-27
2023/03/13 15:15:43;;;;;;;33.50;5.00;;;16.00;90.60;;;;;;10486378;28;20546;-29
2023/03/13 15:20:49;;;;;;;28.92;4.07;;;15.80;91.50;;;;;;10491153;28;20048;-26
2023/03/13 15:25:53;;;;;;;24.65;4.85;;;16.20;88.90;;;;;;10489549;28;20119;-25
2023/03/13 15:30:55;;;;;;;26.98;4.80;;;16.30;87.00;;;;;;10483542;28;20044;-26
2023/03/13 15:35:57;;;;;;;39.67;5.32;;;16.30;88.30;;;;;;10498613;28;20044;-26
2023/03/13 15:41:00;;;;;;;27.08;4.22;;;16.10;96.30;;;;;;10497173;28;20130;-26
2023/03/13 15:46:03;;;;;;;30.70;5.70;;;16.10;91.10;;;;;;10494226;28;20485;-28
2023/03/13 15:51:05;;;;;;;28.92;5.57;;;15.90;84.50;;;;;;10491807;28;20086;-27
2023/03/13 15:56:15;;;;;;;18.05;3.22;;;16.30;99.90;;;;;;10496909;28;20037;-26
2023/03/13 16:01:17;;;;;;;22.35;3.75;;;16.00;95.60;;;;;;10499060;28;20048;-26
2023/03/13 16:06:29;;;;;;;37.50;4.95;;;15.80;98.70;;;;;;10488980;28;20129;-27
2023/03/13 16:11:33;;;;;;;31.00;4.40;;;16.00;80.60;;;;;;10494118;28;20565;-26
2023/03/13 16:16:35;;;;;;;31.23;4.47;;;15.80;90.90;;;;;;10495239;28;20106;-25
2023/03/13 16:21:41;;;;;;;25.45;4.47;;;15.80;83.10;;;;;;10483156;28;20076;-26
2023/03/13 16:26:50;;;;;;;37.45;5.38;;;15.90;87.50;;;;;;10488169;28;20068;-25
2023/03/13 16:31:53;;;;;;;29.30;4.38;;;15.10;96.60;;;;;;10489173;28;20482;-27
2023/03/13 16:36:55;;;;;;;34.85;5.93;;;15.30;90.20;;;;;;10488366;28;20051;-27
2023/03/13 16:41:58;;;;;;;37.70;5.72;;;15.70;99.90;;;;;;10492108;28;20071;-26
2023/03/13 16:47:00;;;;;;;32.83;5.10;;;14.80;92.30;;;;;;10488624;28;20048;-27
2023/03/13 16:52:02;;;;;;;39.73;6.33;;;15.10;99.90;;;;;;10481450;28;20082;-25
2023/03/13 16:57:10;;;;;;;31.17;5.07;;;15.30;91.40;;;;;;10482801;28;20081;-24
2023/03/13 17:02:15;;;;;;;17.77;3.50;;;14.50;95.20;;;;;;10485107;28;20637;-26
2023/03/13 17:07:19;;;;;;;43.58;5.57;;;15.80;99.90;;;;;;10496877;28;20050;-27
2023/03/13 17:12:23;;;;;;;32.72;5.03;;;14.20;99.90;;;;;;10494561;28;20137;-34
2023/03/13 17:17:34;;;;;;;26.10;4.65;;;14.20;99.90;;;;;;10491848;28;20048;-29
2023/03/13 17:22:36;;;;;;;38.72;4.50;;;13.80;99.90;;;;;;10490564;28;20526;-26
2023/03/13 17:27:40;;;;;;;31.98;4.93;;;13.80;99.90;;;;;;10478833;28;20478;-27
2023/03/13 17:32:42;;;;;;;28.23;4.43;;;14.20;99.90;;;;;;10486609;28;20048;-30
2023/03/13 17:37:44;;;;;;;35.78;5.20;;;13.40;99.90;;;;;;10495036;28;20040;-29
2023/03/13 17:42:48;;;;;;;40.43;6.13;;;12.90;99.90;;;;;;10491320;28;20089;-28
2023/03/13 17:47:50;;;;;;;46.38;5.82;;;13.10;99.90;;;;;;10478172;28;20076;-25
2023/03/13 17:52:52;;;;;;;43.30;5.38;;;12.70;99.90;;;;;;10474529;28;20049;-26
2023/03/13 17:57:55;;;;;;;52.13;6.93;;;12.80;99.90;;;;;;10482341;28;20064;-24
2023/03/13 18:02:57;;;;;;;39.33;6.00;;;12.50;99.90;;;;;;10475495;28;20049;-26
2023/03/13 18:07:59;;;;;;;23.95;4.35;;;12.90;99.90;;;;;;10488894;28;20037;-28
2023/03/13 18:13:02;;;;;;;40.78;6.75;;;12.70;99.90;;;;;;10484588;28;20051;-26
2023/03/13 18:18:04;;;;;;;38.47;4.72;;;13.20;99.90;;;;;;10477540;28;20194;-26
2023/03/13 18:23:06;;;;;;;44.17;5.28;;;12.50;99.90;;;;;;10491598;28;20088;-26
2023/03/13 18:28:11;;;;;;;23.25;4.05;;;12.40;99.90;;;;;;10496671;28;20085;-26
2023/03/13 18:33:13;;;;;;;28.98;4.88;;;12.70;99.90;;;;;;10488111;28;20074;-23
2023/03/13 18:38:17;;;;;;;27.40;4.30;;;12.60;99.90;;;;;;10487205;28;20987;-25
2023/03/13 18:43:20;;;;;;;39.60;6.10;;;12.40;99.90;;;;;;10487381;28;20077;-26
2023/03/13 18:48:22;;;;;;;28.13;4.50;;;12.50;99.90;;;;;;10486945;28;20044;-26
2023/03/13 18:53:24;;;;;;;33.20;4.63;;;12.80;99.90;;;;;;10491663;28;20048;-27
2023/03/13 18:58:27;;;;;;;34.80;5.13;;;12.70;99.90;;;;;;10490114;28;20072;-26
2023/03/13 19:03:29;;;;;;;34.28;4.22;;;12.80;99.90;;;;;;10488553;28;20093;-25
2023/03/13 19:08:31;;;;;;;25.73;4.05;;;12.40;99.90;;;;;;10488297;28;20088;-26
2023/03/13 19:13:37;;;;;;;28.08;4.05;;;12.20;99.90;;;;;;10489477;28;20633;-25
2023/03/13 19:18:41;;;;;;;26.77;4.68;;;12.20;99.90;;;;;;10490574;28;20028;-26
2023/03/13 19:23:43;;;;;;;35.42;4.75;;;12.20;99.90;;;;;;10493678;28;20044;-26
2023/03/13 19:28:47;;;;;;;33.33;4.27;;;12.30;99.90;;;;;;10483256;28;20124;-26
2023/03/13 19:33:52;;;;;;;24.88;4.82;;;12.30;99.90;;;;;;10485095;28;20055;-25
2023/03/13 19:38:53;;;;;;;34.75;4.93;;;12.40;99.90;;;;;;10484304;28;20476;-26
2023/03/13 19:43:57;;;;;;;24.80;4.43;;;12.00;99.90;;;;;;10484208;28;20048;-26
2023/03/13 19:49:01;;;;;;;29.25;4.68;;;12.10;99.90;;;;;;10479882;28;20678;-25
2023/03/13 19:54:03;;;;;;;20.10;3.15;;;11.90;99.90;;;;;;10488922;28;20422;-25
2023/03/13 19:59:10;;;;;;;29.48;3.83;;;12.20;99.90;;;;;;10488941;28;20060;-26
2023/03/13 20:04:14;;;;;;;36.88;5.30;;;13.20;99.90;;;;;;10486383;28;20039;-30
2023/03/13 20:09:19;;;;;;;23.27;3.80;;;12.10;99.90;;;;;;10493795;28;20465;-25
2023/03/13 20:14:22;;;;;;;35.03;5.60;;;12.50;99.90;;;;;;10483912;28;20045;-28
2023/03/13 20:19:27;;;;;;;27.60;4.18;;;12.50;99.90;;;;;;10483080;28;20047;-29
2023/03/13 20:24:32;;;;;;;31.30;5.82;;;12.00;99.90;;;;;;10488141;28;20048;-28
2023/03/13 20:29:35;;;;;;;20.17;4.10;;;12.10;99.90;;;;;;10484207;28;20068;-26
2023/03/13 20:34:37;;;;;;;29.85;4.57;;;12.50;99.90;;;;;;10491194;28;20067;-28
2023/03/13 20:39:40;;;;;;;24.08;5.00;;;13.10;99.90;;;;;;10493517;28;20412;-26
2023/03/13 20:44:44;;;;;;;16.33;3.67;;;12.70;99.90;;;;;;10489598;28;20769;-26
2023/03/13 20:49:46;;;;;;;21.08;3.85;;;13.00;99.90;;;;;;10488356;28;20064;-26
2023/03/13 20:54:48;;;;;;;22.55;4.22;;;12.70;99.90;;;;;;10489264;28;20052;-27
2023/03/13 20:59:51;;;;;;;24.55;3.30;;;12.50;99.90;;;;;;10489096;28;20123;-27
2023/03/13 21:04:53;;;;;;;25.52;5.28;;;12.70;99.50;;;;;;10490102;28;20040;-27
2023/03/13 21:09:55;;;;;;;17.95;3.25;;;13.30;99.90;;;;;;10497296;28;20043;-25
2023/03/13 21:14:58;;;;;;;15.77;3.75;;;13.00;99.90;;;;;;10489397;28;20059;-29
2023/03/13 21:20:00;;;;;;;33.90;5.47;;;13.40;99.90;;;;;;10501103;28;20078;-25
2023/03/13 21:25:03;;;;;;;24.15;4.22;;;11.90;99.90;;;;;;10491244;28;20084;-27
2023/03/13 21:30:09;;;;;;;18.25;2.55;;;11.70;99.90;;;;;;10499900;28;20045;-25
2023/03/13 21:35:11;;;;;;;19.05;3.60;;;12.10;99.90;;;;;;10489620;28;20052;-25
2023/03/13 21:40:13;;;;;;;27.58;4.30;;;11.70;99.90;;;;;;10497477;28;20044;-27
2023/03/13 21:45:17;;;;;;;27.75;3.85;;;11.50;99.90;;;;;;10491973;28;20132;-25
2023/03/13 21:50:19;;;;;;;21.00;2.97;;;12.10;99.90;;;;;;10493884;28;20051;-26
2023/03/13 21:55:21;;;;;;;18.53;3.73;;;12.90;99.90;;;;;;10490297;28;20549;-26
2023/03/13 22:00:24;;;;;;;17.13;3.25;;;12.30;99.90;;;;;;10488376;28;20086;-26
2023/03/13 22:05:27;;;;;;;13.60;3.17;;;12.30;99.90;;;;;;10491867;28;20415;-26
2023/03/13 22:10:28;;;;;;;19.80;3.70;;;12.30;99.90;;;;;;10487840;28;20044;-26
2023/03/13 22:15:32;;;;;;;22.10;3.63;;;11.90;99.90;;;;;;10490700;28;20091;-28
2023/03/13 22:20:34;;;;;;;27.08;4.18;;;12.30;99.90;;;;;;10490716;28;20064;-28
2023/03/13 22:25:37;;;;;;;21.98;4.28;;;12.20;99.90;;;;;;10489203;28;20067;-26
2023/03/13 22:30:43;;;;;;;23.17;3.97;;;11.70;99.90;;;;;;10489400;28;20052;-30
2023/03/13 22:35:50;;;;;;;23.92;3.55;;;12.20;99.90;;;;;;10491754;28;20051;-26
2023/03/13 22:40:58;;;;;;;19.08;2.90;;;12.00;99.90;;;;;;10490284;28;20440;-26
2023/03/13 22:46:03;;;;;;;6.43;2.13;;;11.60;99.90;;;;;;10466207;28;20060;-27
2023/03/13 22:51:07;;;;;;;9.23;1.65;;;12.20;99.90;;;;;;10489740;28;20049;-27
2023/03/13 22:56:11;;;;;;;8.02;2.00;;;11.50;99.90;;;;;;10483346;28;20068;-27
2023/03/13 23:01:17;;;;;;;11.68;3.00;;;11.50;99.90;;;;;;10485141;28;20111;-26
2023/03/13 23:06:21;;;;;;;14.30;2.30;;;12.10;99.90;;;;;;10491301;28;20092;-28
2023/03/13 23:11:23;;;;;;;18.48;2.22;;;11.80;99.90;;;;;;10480909;28;20086;-26
2023/03/13 23:16:26;;;;;;;29.20;3.70;;;11.50;99.90;;;;;;10484701;28;20040;-27
2023/03/13 23:21:28;;;;;;;11.10;1.45;;;11.90;99.90;;;;;;10494530;28;20066;-30
2023/03/13 23:26:30;;;;;;;15.25;2.50;;;11.60;99.90;;;;;;10492346;28;20040;-29
2023/03/13 23:31:35;;;;;;;11.80;1.95;;;11.30;99.90;;;;;;10485986;28;20477;-28
2023/03/13 23:36:37;;;;;;;8.18;1.48;;;11.40;99.90;;;;;;10486807;28;20502;-25
2023/03/13 23:41:38;;;;;;;19.48;2.13;;;11.50;99.90;;;;;;10493065;28;20116;-27
2023/03/13 23:46:42;;;;;;;17.60;3.10;;;11.70;99.90;;;;;;10481547;28;20102;-25
2023/03/13 23:51:44;;;;;;;16.25;2.72;;;11.40;99.90;;;;;;10484449;28;20123;-27
2023/03/13 23:56:46;;;;;;;13.40;2.35;;;11.10;99.90;;;;;;10492534;28;20139;-28
